createdAt,value
2023-02-19T00:01:52.223Z,3.00
2023-02-19T00:04:24.626Z,3.10
2023-02-19T00:06:52.770Z,3.40
2023-02-19T00:09:21.804Z,3.10
2023-02-19T00:11:50.093Z,3.50
2023-02-19T00:14:21.713Z,3.10
2023-02-19T00:16:50.118Z,2.70
2023-02-19T00:19:20.952Z,2.80
2023-02-19T00:21:52.691Z,2.80
2023-02-19T00:24:22.059Z,3.30
2023-02-19T00:26:50.526Z,3.50
2023-02-19T00:29:21.189Z,3.40
2023-02-19T00:31:49.442Z,3.60
2023-02-19T00:34:17.762Z,3.20
2023-02-19T00:36:48.222Z,3.20
2023-02-19T00:39:23.414Z,3.00
2023-02-19T00:42:25.035Z,3.30
2023-02-19T00:45:03.391Z,3.20
2023-02-19T00:47:35.183Z,3.20
2023-02-19T00:50:11.112Z,3.40
2023-02-19T00:52:40.410Z,3.10
2023-02-19T00:55:09.480Z,3.30
2023-02-19T00:57:37.653Z,3.50
2023-02-19T01:00:06.891Z,3.30
2023-02-19T01:02:35.022Z,3.40
2023-02-19T01:05:03.197Z,3.50
2023-02-19T01:07:31.308Z,3.60
2023-02-19T01:09:59.487Z,4.00
2023-02-19T01:12:28.358Z,3.80
2023-02-19T01:14:56.474Z,3.40
2023-02-19T01:17:24.995Z,4.20
2023-02-19T01:19:53.383Z,3.20
2023-02-19T01:22:21.488Z,3.60
2023-02-19T01:24:49.652Z,4.30
2023-02-19T01:27:17.805Z,4.00
2023-02-19T01:29:45.904Z,3.80
2023-02-19T01:32:14.103Z,4.10
2023-02-19T01:34:42.280Z,4.10
2023-02-19T01:37:12.222Z,3.70
2023-02-19T01:39:40.303Z,3.60
2023-02-19T01:42:14.586Z,3.50
2023-02-19T01:44:42.723Z,3.60
2023-02-19T01:47:11.756Z,3.90
2023-02-19T01:49:50.778Z,3.80
2023-02-19T01:52:36.052Z,4.00
2023-02-19T01:55:08.884Z,4.10
2023-02-19T01:57:42.907Z,4.70
2023-02-19T02:00:14.258Z,4.40
2023-02-19T02:02:45.297Z,4.40
2023-02-19T02:05:35.237Z,4.20
2023-02-19T02:08:23.118Z,3.70
2023-02-19T02:10:52.495Z,3.90
2023-02-19T02:13:21.251Z,3.60
2023-02-19T02:15:59.306Z,4.10
2023-02-19T02:19:18.278Z,3.60
2023-02-19T02:22:04.508Z,3.70
2023-02-19T02:25:09.712Z,4.30
2023-02-19T02:28:07.175Z,3.40
2023-02-19T02:30:59.400Z,3.20
2023-02-19T02:33:48.225Z,3.60
2023-02-19T02:36:24.788Z,3.50
2023-02-19T02:38:54.667Z,3.40
2023-02-19T02:41:23.574Z,3.40
2023-02-19T02:43:51.609Z,4.00
2023-02-19T02:46:26.852Z,3.90
2023-02-19T02:49:02.864Z,4.00
2023-02-19T02:51:34.755Z,3.50
2023-02-19T02:54:25.854Z,3.30
2023-02-19T02:56:56.370Z,3.50
2023-02-19T02:59:28.678Z,4.30
2023-02-19T03:02:19.321Z,3.90
2023-02-19T03:05:06.464Z,3.40
2023-02-19T03:07:44.083Z,3.10
2023-02-19T03:10:18.733Z,3.40
2023-02-19T03:13:09.758Z,3.40
2023-02-19T03:16:02.578Z,3.60
2023-02-19T03:18:52.410Z,3.90
2023-02-19T03:21:23.113Z,3.30
2023-02-19T03:24:11.327Z,3.40
2023-02-19T03:26:42.677Z,3.40
2023-02-19T03:29:39.285Z,3.20
2023-02-19T03:32:54.913Z,3.40
2023-02-19T03:35:27.383Z,2.80
2023-02-19T03:38:00.418Z,3.50
2023-02-19T03:40:34.640Z,3.60
2023-02-19T03:43:18.061Z,3.10
2023-02-19T03:45:56.304Z,3.20
2023-02-19T03:48:59.443Z,3.10
2023-02-19T03:51:42.882Z,2.80
2023-02-19T03:54:19.299Z,3.10
2023-02-19T03:57:07.465Z,3.50
2023-02-19T04:00:12.486Z,3.40
2023-02-19T04:02:43.877Z,3.30
2023-02-19T04:05:19.085Z,3.30
2023-02-19T04:07:51.581Z,3.70
2023-02-19T04:10:21.218Z,3.50
2023-02-19T04:12:56.810Z,3.20
2023-02-19T04:15:30.150Z,3.20
2023-02-19T04:18:07.492Z,3.60
2023-02-19T04:20:42.693Z,3.50
2023-02-19T04:23:12.380Z,3.00
2023-02-19T04:25:44.177Z,3.40
2023-02-19T04:28:14.569Z,3.20
2023-02-19T04:30:43.851Z,3.90
2023-02-19T04:33:12.111Z,3.30
2023-02-19T04:35:40.190Z,3.20
2023-02-19T04:38:08.266Z,3.30
2023-02-19T04:40:36.317Z,3.00
2023-02-19T04:43:04.349Z,3.40
2023-02-19T04:45:32.483Z,3.20
2023-02-19T04:48:00.561Z,3.40
2023-02-19T04:50:28.766Z,3.40
2023-02-19T04:52:56.873Z,3.60
2023-02-19T04:55:25.119Z,3.40
2023-02-19T04:57:53.182Z,2.90
2023-02-19T05:00:21.508Z,2.80
2023-02-19T05:02:49.569Z,3.00
2023-02-19T05:05:17.724Z,3.00
2023-02-19T05:07:45.934Z,2.80
2023-02-19T05:10:14.026Z,3.40
2023-02-19T05:12:42.369Z,2.90
2023-02-19T05:15:10.433Z,2.80
2023-02-19T05:17:38.490Z,2.90
2023-02-19T05:20:07.001Z,2.60
2023-02-19T05:22:35.030Z,2.80
2023-02-19T05:25:04.621Z,3.50
2023-02-19T05:27:32.710Z,2.90
2023-02-19T05:30:01.157Z,3.00
2023-02-19T05:32:29.240Z,2.60
2023-02-19T05:34:57.445Z,3.30
2023-02-19T05:37:25.471Z,2.90
2023-02-19T05:39:53.559Z,3.30
2023-02-19T05:42:21.621Z,2.70
2023-02-19T05:44:49.627Z,3.20
2023-02-19T05:47:17.725Z,3.00
2023-02-19T05:49:45.952Z,2.50
2023-02-19T05:52:14.710Z,2.90
2023-02-19T05:54:42.741Z,2.90
2023-02-19T05:57:10.819Z,2.40
2023-02-19T05:59:38.860Z,2.70
2023-02-19T06:02:06.913Z,2.80
2023-02-19T06:04:34.978Z,2.60
2023-02-19T06:07:03.079Z,2.80
2023-02-19T06:09:32.438Z,2.70
2023-02-19T06:12:00.627Z,2.80
2023-02-19T06:14:28.665Z,3.10
2023-02-19T06:16:56.814Z,2.70
2023-02-19T06:19:24.975Z,2.50
2023-02-19T06:21:53.203Z,2.60
2023-02-19T06:24:21.313Z,2.40
2023-02-19T06:26:49.437Z,2.70
2023-02-19T06:29:17.705Z,3.00
2023-02-19T06:31:45.816Z,2.60
2023-02-19T06:34:14.114Z,2.50
2023-02-19T06:36:42.174Z,2.40
2023-02-19T06:39:10.612Z,2.40
2023-02-19T06:41:38.978Z,2.40
2023-02-19T06:44:07.062Z,2.30
2023-02-19T06:46:35.802Z,2.40
2023-02-19T06:49:04.949Z,2.40
2023-02-19T06:51:33.376Z,2.50
2023-02-19T06:54:02.594Z,2.90
2023-02-19T06:56:35.582Z,2.50
2023-02-19T06:59:07.549Z,2.40
2023-02-19T07:01:37.204Z,2.50
2023-02-19T07:04:06.318Z,2.50
2023-02-19T07:06:35.587Z,2.50
2023-02-19T07:09:05.474Z,2.60
2023-02-19T07:11:35.186Z,3.50
2023-02-19T07:14:07.848Z,2.40
2023-02-19T07:16:37.244Z,2.10
2023-02-19T07:19:05.332Z,2.10
2023-02-19T07:21:37.866Z,2.30
2023-02-19T07:24:06.782Z,2.40
2023-02-19T07:26:35.865Z,2.40
2023-02-19T07:29:04.498Z,2.90
2023-02-19T07:31:32.668Z,2.30
2023-02-19T07:34:00.758Z,2.10
2023-02-19T07:36:28.919Z,2.50
2023-02-19T07:38:58.484Z,2.80
2023-02-19T07:41:27.718Z,2.20
2023-02-19T07:43:55.828Z,2.30
2023-02-19T07:46:25.037Z,1.90
2023-02-19T07:48:53.072Z,2.40
2023-02-19T07:51:21.648Z,2.10
2023-02-19T07:53:50.804Z,2.00
2023-02-19T07:56:20.742Z,1.90
2023-02-19T08:01:41.902Z,2.00
2023-02-19T08:04:12.164Z,1.80
2023-02-19T08:06:41.079Z,2.00
2023-02-19T08:09:09.719Z,2.00
2023-02-19T08:11:56.535Z,2.00
2023-02-19T08:14:26.535Z,2.00
2023-02-19T08:16:54.965Z,1.60
2023-02-19T08:19:23.528Z,2.00
2023-02-19T08:21:51.887Z,1.90
2023-02-19T08:24:19.978Z,2.00
2023-02-19T08:26:48.093Z,1.70
2023-02-19T08:29:16.316Z,1.80
2023-02-19T08:31:44.611Z,1.60
2023-02-19T08:34:12.867Z,2.40
2023-02-19T08:36:40.997Z,2.00
2023-02-19T08:39:09.030Z,1.50
2023-02-19T08:41:37.194Z,1.80
2023-02-19T08:44:05.420Z,2.00
2023-02-19T08:46:34.510Z,1.80
2023-02-19T08:49:02.894Z,1.40
2023-02-19T08:51:31.595Z,2.70
2023-02-19T08:54:03.855Z,2.40
2023-02-19T08:56:32.147Z,3.30
2023-02-19T08:59:00.179Z,2.20
2023-02-19T09:01:28.326Z,1.50
2023-02-19T09:03:56.579Z,1.70
2023-02-19T09:06:24.670Z,1.70
2023-02-19T09:08:52.779Z,1.90
2023-02-19T09:11:20.949Z,2.00
2023-02-19T09:13:49.072Z,2.00
2023-02-19T09:16:17.212Z,1.70
2023-02-19T09:18:45.996Z,2.30
2023-02-19T09:21:14.211Z,2.70
2023-02-19T09:23:42.495Z,3.10
2023-02-19T09:26:11.662Z,2.50
2023-02-19T09:28:42.060Z,2.60
2023-02-19T09:31:16.711Z,2.30
2023-02-19T09:33:46.533Z,2.30
2023-02-19T09:36:16.473Z,1.90
2023-02-19T09:38:44.650Z,2.10
2023-02-19T09:41:25.079Z,1.80
2023-02-19T09:43:53.332Z,1.00
2023-02-19T09:46:38.106Z,1.50
2023-02-19T09:49:15.698Z,1.10
2023-02-19T09:51:51.428Z,1.40
2023-02-19T09:54:29.180Z,1.90
2023-02-19T09:57:00.375Z,1.70
2023-02-19T09:59:44.807Z,1.40
2023-02-19T10:02:22.227Z,1.70
2023-02-19T10:04:52.343Z,1.50
2023-02-19T10:10:22.820Z,1.20
2023-02-19T10:15:32.405Z,1.30
2023-02-19T10:20:28.698Z,1.00
2023-02-19T10:23:04.292Z,1.10
2023-02-19T10:25:34.376Z,1.40
2023-02-19T10:28:03.631Z,2.30
2023-02-19T10:30:35.852Z,4.00
2023-02-19T10:33:11.531Z,1.50
2023-02-19T10:35:52.134Z,3.60
2023-02-19T10:38:23.821Z,1.50
2023-02-19T10:41:12.732Z,4.00
2023-02-19T10:43:45.835Z,11.40
2023-02-19T10:46:30.198Z,9.60
2023-02-19T10:49:06.097Z,9.90
2023-02-19T10:51:40.577Z,4.30
2023-02-19T10:54:25.648Z,2.10
2023-02-19T10:56:54.683Z,3.20
2023-02-19T10:59:27.720Z,3.60
2023-02-19T11:02:01.718Z,1.60
2023-02-19T11:04:35.344Z,1.40
2023-02-19T11:07:11.688Z,1.50
2023-02-19T11:09:43.398Z,2.50
2023-02-19T11:12:14.231Z,2.40
2023-02-19T11:14:45.685Z,1.90
2023-02-19T11:17:30.700Z,2.40
2023-02-19T11:20:05.429Z,4.10
2023-02-19T11:22:33.691Z,5.00
2023-02-19T11:25:07.056Z,3.70
2023-02-19T11:27:35.378Z,2.30
2023-02-19T11:30:35.248Z,2.60
2023-02-19T11:33:20.107Z,1.20
2023-02-19T11:36:11.797Z,1.30
2023-02-19T11:38:40.006Z,1.70
2023-02-19T11:41:31.251Z,1.30
2023-02-19T11:44:07.831Z,1.70
2023-02-19T11:46:41.667Z,1.00
2023-02-19T11:49:41.063Z,1.10
2023-02-19T11:52:33.798Z,1.20
2023-02-19T11:55:17.165Z,1.60
2023-02-19T11:58:11.879Z,1.00
2023-02-19T12:01:14.473Z,1.40
2023-02-19T12:04:00.537Z,1.30
2023-02-19T12:06:28.650Z,1.90
2023-02-19T12:09:23.140Z,1.90
2023-02-19T12:12:00.403Z,2.00
2023-02-19T12:14:53.480Z,1.30
2023-02-19T12:17:36.272Z,1.40
2023-02-19T12:21:21.234Z,1.30
2023-02-19T12:24:23.048Z,1.30
2023-02-19T12:27:08.886Z,0.90
2023-02-19T12:29:50.641Z,0.90
2023-02-19T12:32:40.691Z,0.90
2023-02-19T12:35:17.095Z,1.40
2023-02-19T12:38:12.196Z,1.10
2023-02-19T12:40:55.552Z,0.70
2023-02-19T12:43:24.687Z,0.80
2023-02-19T12:46:02.025Z,3.00
2023-02-19T12:48:41.426Z,1.80
2023-02-19T12:51:26.736Z,0.80
2023-02-19T12:54:01.326Z,1.10
2023-02-19T12:56:32.128Z,1.40
2023-02-19T12:59:35.636Z,0.80
2023-02-19T13:02:18.302Z,0.80
2023-02-19T13:05:19.607Z,0.80
2023-02-19T13:08:07.934Z,1.00
2023-02-19T13:11:00.202Z,1.10
2023-02-19T13:13:38.787Z,0.80
2023-02-19T13:16:15.103Z,0.90
2023-02-19T13:18:52.112Z,0.70
2023-02-19T13:21:43.902Z,0.80
2023-02-19T13:24:17.625Z,0.90
2023-02-19T13:26:49.401Z,1.20
2023-02-19T13:29:44.357Z,1.10
2023-02-19T13:32:31.427Z,1.00
2023-02-19T13:35:27.408Z,1.00
2023-02-19T13:38:08.850Z,0.90
2023-02-19T13:40:42.397Z,1.20
2023-02-19T13:43:28.581Z,1.50
2023-02-19T13:46:00.568Z,0.90
2023-02-19T13:48:31.952Z,1.90
2023-02-19T13:51:24.539Z,2.60
2023-02-19T13:54:00.473Z,1.40
2023-02-19T13:57:12.515Z,1.50
2023-02-19T13:59:41.033Z,1.30
2023-02-19T14:02:11.545Z,1.30
2023-02-19T14:04:54.638Z,1.10
2023-02-19T14:07:49.534Z,1.30
2023-02-19T14:10:57.727Z,0.90
2023-02-19T14:13:47.916Z,1.20
2023-02-19T14:16:39.114Z,1.10
2023-02-19T14:19:41.796Z,1.30
2023-02-19T14:22:55.577Z,1.80
2023-02-19T14:25:53.450Z,1.30
2023-02-19T14:28:36.360Z,1.10
2023-02-19T14:31:32.618Z,1.60
2023-02-19T14:34:22.932Z,1.10
2023-02-19T14:36:59.087Z,1.10
2023-02-19T14:39:35.348Z,0.80
2023-02-19T14:42:18.479Z,1.20
2023-02-19T14:44:52.162Z,0.80
2023-02-19T14:47:23.553Z,0.70
2023-02-19T14:49:57.974Z,0.80
2023-02-19T14:52:43.808Z,1.10
2023-02-19T14:55:26.041Z,1.40
2023-02-19T14:58:05.936Z,3.10
2023-02-19T15:00:37.985Z,1.10
2023-02-19T15:03:23.451Z,1.10
2023-02-19T15:06:00.203Z,1.50
2023-02-19T15:08:36.125Z,2.00
2023-02-19T15:11:10.767Z,7.20
2023-02-19T15:13:45.782Z,5.30
2023-02-19T15:16:23.671Z,2.60
2023-02-19T15:18:55.610Z,6.40
2023-02-19T15:21:32.776Z,6.90
2023-02-19T15:24:03.937Z,5.80
2023-02-19T15:26:41.147Z,11.30
2023-02-19T15:29:18.722Z,6.70
2023-02-19T15:31:59.042Z,6.30
2023-02-19T15:34:32.585Z,3.90
2023-02-19T15:37:06.565Z,4.00
2023-02-19T15:39:48.462Z,3.10
2023-02-19T15:42:28.567Z,2.80
2023-02-19T15:44:57.342Z,4.60
2023-02-19T15:47:37.467Z,3.00
2023-02-19T15:50:12.125Z,1.80
2023-02-19T15:53:04.927Z,1.80
2023-02-19T15:55:45.722Z,1.40
2023-02-19T15:58:20.055Z,1.60
2023-02-19T16:00:57.246Z,1.70
2023-02-19T16:03:27.531Z,1.50
2023-02-19T16:06:17.086Z,1.20
2023-02-19T16:09:06.617Z,1.20
2023-02-19T16:11:35.116Z,1.10
2023-02-19T16:14:37.275Z,1.60
2023-02-19T16:17:10.957Z,1.00
2023-02-19T16:20:00.898Z,0.90
2023-02-19T16:22:32.064Z,1.20
2023-02-19T16:25:06.054Z,1.40
2023-02-19T16:27:38.753Z,1.60
2023-02-19T16:30:28.796Z,1.80
2023-02-19T16:33:22.091Z,3.10
2023-02-19T16:35:52.635Z,39.50
2023-02-19T16:38:21.174Z,29.80
2023-02-19T16:40:49.366Z,23.80
2023-02-19T16:43:38.449Z,17.80
2023-02-19T16:46:10.269Z,15.50
2023-02-19T16:48:38.749Z,12.10
2023-02-19T16:51:08.276Z,11.20
2023-02-19T16:53:36.436Z,14.90
2023-02-19T16:56:04.816Z,13.40
2023-02-19T16:58:32.942Z,12.70
2023-02-19T17:01:01.982Z,10.50
2023-02-19T17:03:30.664Z,6.50
2023-02-19T17:05:58.981Z,4.70
2023-02-19T17:08:34.589Z,3.30
2023-02-19T17:11:11.367Z,2.60
2023-02-19T17:13:40.183Z,3.30
2023-02-19T17:16:11.304Z,3.50
2023-02-19T17:18:39.526Z,2.40
2023-02-19T17:21:17.528Z,2.50
2023-02-19T17:23:46.156Z,2.10
2023-02-19T17:26:16.881Z,1.30
2023-02-19T17:28:45.258Z,2.20
2023-02-19T17:31:14.718Z,2.20
2023-02-19T17:33:43.904Z,3.10
2023-02-19T17:36:21.701Z,2.10
2023-02-19T17:38:49.802Z,1.90
2023-02-19T17:41:18.136Z,2.40
2023-02-19T17:43:47.666Z,3.10
2023-02-19T17:46:17.376Z,2.20
2023-02-19T17:48:45.958Z,1.70
2023-02-19T17:51:15.028Z,1.90
2023-02-19T17:53:43.622Z,1.90
2023-02-19T17:56:16.866Z,2.60
2023-02-19T17:58:45.871Z,2.60
2023-02-19T18:01:14.477Z,2.40
2023-02-19T18:03:43.046Z,1.90
2023-02-19T18:06:11.425Z,2.30
2023-02-19T18:08:39.520Z,2.60
2023-02-19T18:11:08.243Z,2.20
2023-02-19T18:13:36.470Z,2.30
2023-02-19T18:16:06.029Z,2.20
2023-02-19T18:18:34.199Z,1.90
2023-02-19T18:21:02.817Z,2.00
2023-02-19T18:23:30.892Z,2.00
2023-02-19T18:26:00.561Z,1.70
2023-02-19T18:30:57.483Z,1.40
2023-02-19T18:33:25.697Z,1.60
2023-02-19T18:35:54.148Z,1.30
2023-02-19T18:38:22.551Z,1.40
2023-02-19T18:40:50.622Z,1.20
2023-02-19T18:43:19.152Z,1.20
2023-02-19T18:45:48.869Z,1.20
2023-02-19T18:48:17.543Z,1.30
2023-02-19T18:50:45.915Z,1.40
2023-02-19T18:53:14.407Z,1.40
2023-02-19T18:55:42.711Z,1.50
2023-02-19T18:58:10.976Z,2.10
2023-02-19T19:00:39.915Z,1.70
2023-02-19T19:03:54.655Z,1.80
2023-02-19T19:06:25.985Z,2.20
2023-02-19T19:08:54.324Z,2.10
2023-02-19T19:11:22.861Z,2.10
2023-02-19T19:13:51.433Z,2.10
2023-02-19T19:16:24.332Z,2.50
2023-02-19T19:18:53.776Z,2.90
2023-02-19T19:21:23.269Z,2.80
2023-02-19T19:23:51.820Z,2.60
2023-02-19T19:26:20.683Z,2.30
2023-02-19T19:28:48.813Z,2.50
2023-02-19T19:31:21.340Z,2.70
2023-02-19T19:33:49.576Z,2.30
2023-02-19T19:36:23.212Z,2.60
2023-02-19T19:38:52.213Z,2.50
2023-02-19T19:41:21.115Z,2.70
2023-02-19T19:43:49.234Z,3.20
2023-02-19T19:46:20.061Z,3.30
2023-02-19T19:48:50.281Z,2.90
2023-02-19T19:51:19.062Z,3.00
2023-02-19T19:53:49.149Z,2.90
2023-02-19T19:56:17.661Z,2.20
2023-02-19T19:58:47.728Z,2.40
2023-02-19T20:03:51.217Z,1.90
2023-02-19T20:08:55.596Z,2.40
2023-02-19T20:11:24.095Z,1.90
2023-02-19T20:13:52.188Z,2.00
2023-02-19T20:16:25.711Z,2.40
2023-02-19T20:18:53.997Z,1.80
2023-02-19T20:21:22.773Z,1.90
2023-02-19T20:23:51.080Z,1.50
2023-02-19T20:26:24.608Z,1.80
2023-02-19T20:28:53.656Z,1.80
2023-02-19T20:31:22.786Z,1.90
2023-02-19T20:33:51.345Z,1.80
2023-02-19T20:36:22.623Z,1.90
2023-02-19T20:38:51.143Z,2.10
2023-02-19T20:41:19.303Z,1.70
2023-02-19T20:43:47.619Z,1.80
2023-02-19T20:46:15.963Z,1.80
2023-02-19T20:48:44.807Z,2.00
2023-02-19T20:51:13.093Z,1.80
2023-02-19T20:53:41.939Z,2.00
2023-02-19T20:56:11.665Z,2.40
2023-02-19T20:58:43.496Z,2.00
2023-02-19T21:01:12.286Z,2.10
2023-02-19T21:03:40.687Z,1.50
2023-02-19T21:06:08.825Z,1.50
2023-02-19T21:08:37.054Z,1.70
2023-02-19T21:11:05.378Z,1.60
2023-02-19T21:13:35.177Z,1.60
2023-02-19T21:16:03.815Z,1.90
2023-02-19T21:18:31.935Z,1.80
2023-02-19T21:21:00.057Z,2.50
2023-02-19T21:23:28.895Z,1.80
2023-02-19T21:25:57.269Z,2.00
2023-02-19T21:28:25.274Z,1.70
2023-02-19T21:30:53.584Z,1.80
2023-02-19T21:33:21.678Z,1.50
2023-02-19T21:35:49.679Z,1.60
2023-02-19T21:38:18.341Z,1.90
2023-02-19T21:40:46.405Z,2.50
2023-02-19T21:43:14.564Z,1.90
2023-02-19T21:45:43.207Z,2.20
2023-02-19T21:48:11.353Z,2.10
2023-02-19T21:50:40.461Z,2.10
2023-02-19T21:53:08.476Z,2.30
2023-02-19T21:55:38.548Z,2.40
2023-02-19T21:58:07.764Z,2.40
2023-02-19T22:00:36.154Z,2.20
2023-02-19T22:03:04.313Z,2.10
2023-02-19T22:05:33.152Z,2.50
2023-02-19T22:08:01.859Z,2.60
2023-02-19T22:10:30.128Z,2.50
2023-02-19T22:12:58.337Z,2.20
2023-02-19T22:15:26.464Z,2.20
2023-02-19T22:17:54.681Z,2.20
2023-02-19T22:20:22.817Z,2.20
2023-02-19T22:22:50.944Z,1.80
2023-02-19T22:25:19.238Z,1.90
2023-02-19T22:27:49.001Z,1.50
2023-02-19T22:30:17.451Z,1.90
2023-02-19T22:32:45.700Z,1.80
2023-02-19T22:35:15.770Z,1.60
2023-02-19T22:37:44.113Z,1.60
2023-02-19T22:40:12.798Z,2.00
2023-02-19T22:42:40.951Z,1.70
2023-02-19T22:45:12.012Z,2.50
2023-02-19T22:47:40.482Z,1.70
2023-02-19T22:50:09.172Z,2.00
2023-02-19T22:52:37.339Z,1.60
2023-02-19T22:55:05.776Z,1.70
2023-02-19T22:57:34.145Z,1.70
2023-02-19T23:00:04.686Z,1.50
2023-02-19T23:02:33.025Z,1.80
2023-02-19T23:05:01.252Z,1.70
2023-02-19T23:07:29.696Z,1.50
2023-02-19T23:10:00.115Z,2.10
2023-02-19T23:12:32.308Z,1.70
2023-02-19T23:15:01.546Z,1.60
2023-02-19T23:17:30.584Z,1.50
2023-02-19T23:19:58.857Z,1.90
2023-02-19T23:22:28.342Z,2.00
2023-02-19T23:24:56.563Z,2.50
2023-02-19T23:27:26.886Z,2.90
2023-02-19T23:29:56.539Z,2.70
2023-02-19T23:32:24.880Z,2.70
2023-02-19T23:34:53.035Z,2.40
2023-02-19T23:37:21.123Z,1.90
2023-02-19T23:39:49.312Z,2.00
2023-02-19T23:42:17.476Z,2.00
2023-02-19T23:44:49.117Z,1.90
2023-02-19T23:47:18.353Z,1.90
2023-02-19T23:49:46.490Z,1.90
2023-02-19T23:52:14.639Z,1.60
2023-02-19T23:54:42.788Z,1.70
2023-02-19T23:57:10.939Z,1.70
2023-02-19T23:59:39.073Z,1.30
